sensor_id;sensor_type;location;lat;lon;timestamp;P1;durP1;ratioP1;P2;durP2;ratioP2
64060;SDS011;60147;55.036;73.242;2024-01-15T00:00:17;3.53;;;3.22;;
64060;SDS011;60147;55.036;73.242;2024-01-15T00:02:44;3.53;;;3.20;;
64060;SDS011;60147;55.036;73.242;2024-01-15T00:05:10;4.80;;;4.47;;
64060;SDS011;60147;55.036;73.242;2024-01-15T00:07:35;7.20;;;4.13;;
64060;SDS011;60147;55.036;73.242;2024-01-15T00:10:02;5.10;;;4.32;;
64060;SDS011;60147;55.036;73.242;2024-01-15T00:12:28;5.35;;;4.93;;
64060;SDS011;60147;55.036;73.242;2024-01-15T00:14:53;4.25;;;3.95;;
64060;SDS011;60147;55.036;73.242;2024-01-15T00:17:20;5.13;;;4.72;;
64060;SDS011;60147;55.036;73.242;2024-01-15T00:19:45;3.92;;;3.63;;
64060;SDS011;60147;55.036;73.242;2024-01-15T00:22:11;9.50;;;5.75;;
64060;SDS011;60147;55.036;73.242;2024-01-15T00:24:37;3.78;;;3.53;;
64060;SDS011;60147;55.036;73.242;2024-01-15T00:27:03;5.28;;;3.70;;
64060;SDS011;60147;55.036;73.242;2024-01-15T00:29:29;5.13;;;4.70;;
64060;SDS011;60147;55.036;73.242;2024-01-15T00:31:55;5.10;;;4.68;;
64060;SDS011;60147;55.036;73.242;2024-01-15T00:34:26;4.63;;;4.25;;
64060;SDS011;60147;55.036;73.242;2024-01-15T00:36:51;4.05;;;3.75;;
64060;SDS011;60147;55.036;73.242;2024-01-15T00:39:17;5.32;;;3.72;;
64060;SDS011;60147;55.036;73.242;2024-01-15T00:42:03;3.92;;;3.63;;
64060;SDS011;60147;55.036;73.242;2024-01-15T00:44:29;4.47;;;4.07;;
64060;SDS011;60147;55.036;73.242;2024-01-15T00:46:55;4.63;;;4.32;;
64060;SDS011;60147;55.036;73.242;2024-01-15T00:49:21;4.18;;;3.95;;
64060;SDS011;60147;55.036;73.242;2024-01-15T00:51:47;3.83;;;3.58;;
64060;SDS011;60147;55.036;73.242;2024-01-15T00:54:13;3.53;;;3.33;;
64060;SDS011;60147;55.036;73.242;2024-01-15T00:56:39;2.65;;;2.45;;
64060;SDS011;60147;55.036;73.242;2024-01-15T00:59:05;3.90;;;3.60;;
64060;SDS011;60147;55.036;73.242;2024-01-15T01:01:31;8.57;;;3.90;;
64060;SDS011;60147;55.036;73.242;2024-01-15T01:03:57;5.05;;;4.75;;
64060;SDS011;60147;55.036;73.242;2024-01-15T01:06:23;5.93;;;4.72;;
64060;SDS011;60147;55.036;73.242;2024-01-15T01:08:48;5.18;;;4.80;;
64060;SDS011;60147;55.036;73.242;2024-01-15T01:11:15;8.00;;;4.95;;
64060;SDS011;60147;55.036;73.242;2024-01-15T01:13:41;3.95;;;3.67;;
64060;SDS011;60147;55.036;73.242;2024-01-15T01:16:07;4.18;;;3.78;;
64060;SDS011;60147;55.036;73.242;2024-01-15T01:18:34;9.43;;;4.88;;
64060;SDS011;60147;55.036;73.242;2024-01-15T01:21:00;7.63;;;4.95;;
64060;SDS011;60147;55.036;73.242;2024-01-15T01:23:26;5.03;;;4.63;;
64060;SDS011;60147;55.036;73.242;2024-01-15T01:25:52;3.50;;;3.20;;
64060;SDS011;60147;55.036;73.242;2024-01-15T01:28:18;4.55;;;4.25;;
64060;SDS011;60147;55.036;73.242;2024-01-15T01:30:44;4.03;;;3.80;;
64060;SDS011;60147;55.036;73.242;2024-01-15T01:33:10;4.45;;;4.05;;
64060;SDS011;60147;55.036;73.242;2024-01-15T01:35:36;4.47;;;4.07;;
64060;SDS011;60147;55.036;73.242;2024-01-15T01:38:02;3.35;;;3.15;;
64060;SDS011;60147;55.036;73.242;2024-01-15T01:40:28;8.43;;;4.95;;
64060;SDS011;60147;55.036;73.242;2024-01-15T01:42:53;4.55;;;4.25;;
64060;SDS011;60147;55.036;73.242;2024-01-15T01:45:19;7.40;;;5.70;;
64060;SDS011;60147;55.036;73.242;2024-01-15T01:47:45;4.43;;;4.13;;
64060;SDS011;60147;55.036;73.242;2024-01-15T01:50:11;5.90;;;5.32;;
64060;SDS011;60147;55.036;73.242;2024-01-15T01:52:38;4.70;;;4.20;;
64060;SDS011;60147;55.036;73.242;2024-01-15T01:55:04;5.97;;;5.55;;
64060;SDS011;60147;55.036;73.242;2024-01-15T01:57:31;5.13;;;3.83;;
64060;SDS011;60147;55.036;73.242;2024-01-15T01:59:59;4.35;;;3.95;;
64060;SDS011;60147;55.036;73.242;2024-01-15T02:02:25;9.55;;;5.70;;
64060;SDS011;60147;55.036;73.242;2024-01-15T02:04:51;8.23;;;5.85;;
64060;SDS011;60147;55.036;73.242;2024-01-15T02:07:17;5.10;;;4.70;;
64060;SDS011;60147;55.036;73.242;2024-01-15T02:09:47;6.25;;;5.57;;
64060;SDS011;60147;55.036;73.242;2024-01-15T02:12:13;3.35;;;3.15;;
64060;SDS011;60147;55.036;73.242;2024-01-15T02:14:59;16.02;;;5.15;;
64060;SDS011;60147;55.036;73.242;2024-01-15T02:17:25;7.70;;;6.00;;
64060;SDS011;60147;55.036;73.242;2024-01-15T02:19:51;11.70;;;4.03;;
64060;SDS011;60147;55.036;73.242;2024-01-15T02:22:17;4.35;;;4.05;;
64060;SDS011;60147;55.036;73.242;2024-01-15T02:24:43;10.18;;;4.45;;
64060;SDS011;60147;55.036;73.242;2024-01-15T02:27:09;3.78;;;3.58;;
64060;SDS011;60147;55.036;73.242;2024-01-15T02:29:35;9.38;;;5.43;;
64060;SDS011;60147;55.036;73.242;2024-01-15T02:32:04;6.90;;;5.50;;
64060;SDS011;60147;55.036;73.242;2024-01-15T02:34:34;6.32;;;5.80;;
64060;SDS011;60147;55.036;73.242;2024-01-15T02:37:00;6.85;;;6.25;;
64060;SDS011;60147;55.036;73.242;2024-01-15T02:39:46;5.43;;;4.95;;
64060;SDS011;60147;55.036;73.242;2024-01-15T02:42:12;7.07;;;4.22;;
64060;SDS011;60147;55.036;73.242;2024-01-15T02:44:43;5.15;;;4.75;;
64060;SDS011;60147;55.036;73.242;2024-01-15T02:47:09;7.28;;;4.93;;
64060;SDS011;60147;55.036;73.242;2024-01-15T02:49:35;17.17;;;6.07;;
64060;SDS011;60147;55.036;73.242;2024-01-15T02:52:01;5.28;;;2.90;;
64060;SDS011;60147;55.036;73.242;2024-01-15T02:54:27;5.90;;;4.63;;
64060;SDS011;60147;55.036;73.242;2024-01-15T02:56:53;6.30;;;4.05;;
64060;SDS011;60147;55.036;73.242;2024-01-15T02:59:19;7.45;;;4.15;;
64060;SDS011;60147;55.036;73.242;2024-01-15T03:01:45;4.65;;;4.25;;
64060;SDS011;60147;55.036;73.242;2024-01-15T03:04:11;4.43;;;4.13;;
64060;SDS011;60147;55.036;73.242;2024-01-15T03:06:37;8.48;;;4.68;;
64060;SDS011;60147;55.036;73.242;2024-01-15T03:09:03;5.18;;;4.53;;
64060;SDS011;60147;55.036;73.242;2024-01-15T03:11:29;3.97;;;3.67;;
64060;SDS011;60147;55.036;73.242;2024-01-15T03:13:55;6.55;;;5.32;;
64060;SDS011;60147;55.036;73.242;2024-01-15T03:16:21;7.68;;;6.78;;
64060;SDS011;60147;55.036;73.242;2024-01-15T03:19:07;5.60;;;4.82;;
64060;SDS011;60147;55.036;73.242;2024-01-15T03:21:33;7.88;;;4.18;;
64060;SDS011;60147;55.036;73.242;2024-01-15T03:23:59;6.05;;;5.50;;
64060;SDS011;60147;55.036;73.242;2024-01-15T03:26:25;4.88;;;3.42;;
64060;SDS011;60147;55.036;73.242;2024-01-15T03:28:51;5.47;;;4.15;;
64060;SDS011;60147;55.036;73.242;2024-01-15T03:31:17;6.47;;;5.93;;
64060;SDS011;60147;55.036;73.242;2024-01-15T03:33:43;16.88;;;5.35;;
64060;SDS011;60147;55.036;73.242;2024-01-15T03:36:09;4.30;;;4.03;;
64060;SDS011;60147;55.036;73.242;2024-01-15T03:38:39;8.43;;;5.72;;
64060;SDS011;60147;55.036;73.242;2024-01-15T03:41:05;4.85;;;4.47;;
64060;SDS011;60147;55.036;73.242;2024-01-15T03:43:31;9.70;;;5.85;;
64060;SDS011;60147;55.036;73.242;2024-01-15T03:45:57;4.25;;;3.92;;
64060;SDS011;60147;55.036;73.242;2024-01-15T03:48:23;4.60;;;4.20;;
64060;SDS011;60147;55.036;73.242;2024-01-15T03:50:49;4.40;;;4.10;;
64060;SDS011;60147;55.036;73.242;2024-01-15T03:53:16;7.13;;;4.43;;
64060;SDS011;60147;55.036;73.242;2024-01-15T03:55:42;4.85;;;4.45;;
64060;SDS011;60147;55.036;73.242;2024-01-15T03:58:08;3.30;;;2.85;;
64060;SDS011;60147;55.036;73.242;2024-01-15T04:00:39;4.22;;;3.83;;
64060;SDS011;60147;55.036;73.242;2024-01-15T04:03:04;6.57;;;5.75;;
64060;SDS011;60147;55.036;73.242;2024-01-15T04:05:31;6.20;;;4.70;;
64060;SDS011;60147;55.036;73.242;2024-01-15T04:07:57;7.70;;;6.97;;
64060;SDS011;60147;55.036;73.242;2024-01-15T04:10:23;6.32;;;5.82;;
64060;SDS011;60147;55.036;73.242;2024-01-15T04:12:49;13.20;;;6.45;;
64060;SDS011;60147;55.036;73.242;2024-01-15T04:15:15;6.82;;;5.32;;
64060;SDS011;60147;55.036;73.242;2024-01-15T04:17:41;4.63;;;3.95;;
64060;SDS011;60147;55.036;73.242;2024-01-15T04:20:07;5.35;;;4.85;;
64060;SDS011;60147;55.036;73.242;2024-01-15T04:22:36;4.97;;;4.57;;
64060;SDS011;60147;55.036;73.242;2024-01-15T04:25:03;4.22;;;3.85;;
64060;SDS011;60147;55.036;73.242;2024-01-15T04:27:29;5.35;;;4.85;;
64060;SDS011;60147;55.036;73.242;2024-01-15T04:29:55;4.47;;;4.07;;
64060;SDS011;60147;55.036;73.242;2024-01-15T04:32:21;7.68;;;5.75;;
64060;SDS011;60147;55.036;73.242;2024-01-15T04:34:47;4.63;;;4.22;;
64060;SDS011;60147;55.036;73.242;2024-01-15T04:37:13;5.00;;;4.60;;
64060;SDS011;60147;55.036;73.242;2024-01-15T04:39:39;5.20;;;4.55;;
64060;SDS011;60147;55.036;73.242;2024-01-15T04:42:06;6.90;;;5.93;;
64060;SDS011;60147;55.036;73.242;2024-01-15T04:44:32;8.73;;;5.95;;
64060;SDS011;60147;55.036;73.242;2024-01-15T04:46:58;4.00;;;3.72;;
64060;SDS011;60147;55.036;73.242;2024-01-15T04:49:24;5.07;;;4.78;;
64060;SDS011;60147;55.036;73.242;2024-01-15T04:51:52;6.40;;;4.90;;
64060;SDS011;60147;55.036;73.242;2024-01-15T04:54:18;7.13;;;5.30;;
64060;SDS011;60147;55.036;73.242;2024-01-15T04:56:44;8.13;;;6.45;;
64060;SDS011;60147;55.036;73.242;2024-01-15T04:59:10;11.15;;;7.03;;
64060;SDS011;60147;55.036;73.242;2024-01-15T05:01:37;5.40;;;4.90;;
64060;SDS011;60147;55.036;73.242;2024-01-15T05:04:03;6.18;;;4.68;;
64060;SDS011;60147;55.036;73.242;2024-01-15T05:06:29;6.35;;;3.40;;
64060;SDS011;60147;55.036;73.242;2024-01-15T05:08:55;26.83;;;7.88;;
64060;SDS011;60147;55.036;73.242;2024-01-15T05:11:21;12.98;;;6.75;;
64060;SDS011;60147;55.036;73.242;2024-01-15T05:13:47;8.10;;;6.32;;
64060;SDS011;60147;55.036;73.242;2024-01-15T05:16:33;5.45;;;4.65;;
64060;SDS011;60147;55.036;73.242;2024-01-15T05:18:59;4.70;;;4.35;;
64060;SDS011;60147;55.036;73.242;2024-01-15T05:21:25;4.30;;;4.00;;
64060;SDS011;60147;55.036;73.242;2024-01-15T05:23:51;7.80;;;5.18;;
64060;SDS011;60147;55.036;73.242;2024-01-15T05:26:17;6.22;;;5.53;;
64060;SDS011;60147;55.036;73.242;2024-01-15T05:28:43;4.53;;;4.22;;
64060;SDS011;60147;55.036;73.242;2024-01-15T05:31:09;5.85;;;5.22;;
64060;SDS011;60147;55.036;73.242;2024-01-15T05:33:36;5.28;;;4.85;;
64060;SDS011;60147;55.036;73.242;2024-01-15T05:36:02;8.82;;;6.10;;
64060;SDS011;60147;55.036;73.242;2024-01-15T05:38:28;7.47;;;5.28;;
64060;SDS011;60147;55.036;73.242;2024-01-15T05:40:55;8.90;;;8.10;;
64060;SDS011;60147;55.036;73.242;2024-01-15T05:43:21;12.55;;;7.90;;
64060;SDS011;60147;55.036;73.242;2024-01-15T05:45:47;6.50;;;5.18;;
64060;SDS011;60147;55.036;73.242;2024-01-15T05:48:13;4.03;;;3.83;;
64060;SDS011;60147;55.036;73.242;2024-01-15T05:50:39;7.95;;;5.18;;
64060;SDS011;60147;55.036;73.242;2024-01-15T05:53:05;4.05;;;3.75;;
64060;SDS011;60147;55.036;73.242;2024-01-15T05:55:31;5.88;;;5.13;;
64060;SDS011;60147;55.036;73.242;2024-01-15T05:57:57;3.47;;;3.20;;
64060;SDS011;60147;55.036;73.242;2024-01-15T06:00:23;4.88;;;4.45;;
64060;SDS011;60147;55.036;73.242;2024-01-15T06:02:49;4.40;;;3.10;;
64060;SDS011;60147;55.036;73.242;2024-01-15T06:05:15;8.57;;;4.13;;
64060;SDS011;60147;55.036;73.242;2024-01-15T06:07:41;3.47;;;3.28;;
64060;SDS011;60147;55.036;73.242;2024-01-15T06:10:07;4.78;;;3.03;;
64060;SDS011;60147;55.036;73.242;2024-01-15T06:12:33;10.82;;;3.30;;
64060;SDS011;60147;55.036;73.242;2024-01-15T06:14:59;3.28;;;2.97;;
64060;SDS011;60147;55.036;73.242;2024-01-15T06:17:26;5.25;;;4.88;;
64060;SDS011;60147;55.036;73.242;2024-01-15T06:19:52;6.40;;;3.92;;
64060;SDS011;60147;55.036;73.242;2024-01-15T06:22:18;7.50;;;4.18;;
64060;SDS011;60147;55.036;73.242;2024-01-15T06:24:44;4.97;;;4.47;;
64060;SDS011;60147;55.036;73.242;2024-01-15T06:27:10;3.63;;;3.38;;
64060;SDS011;60147;55.036;73.242;2024-01-15T06:29:37;5.05;;;4.70;;
64060;SDS011;60147;55.036;73.242;2024-01-15T06:32:03;4.15;;;3.65;;
64060;SDS011;60147;55.036;73.242;2024-01-15T06:34:30;4.43;;;3.97;;
64060;SDS011;60147;55.036;73.242;2024-01-15T06:36:56;3.83;;;3.53;;
64060;SDS011;60147;55.036;73.242;2024-01-15T06:39:22;4.25;;;3.92;;
64060;SDS011;60147;55.036;73.242;2024-01-15T06:41:48;3.22;;;3.03;;
64060;SDS011;60147;55.036;73.242;2024-01-15T06:44:18;3.40;;;3.20;;
64060;SDS011;60147;55.036;73.242;2024-01-15T06:46:46;4.28;;;3.88;;
64060;SDS011;60147;55.036;73.242;2024-01-15T06:49:13;4.55;;;4.05;;
64060;SDS011;60147;55.036;73.242;2024-01-15T06:51:39;3.83;;;3.50;;
64060;SDS011;60147;55.036;73.242;2024-01-15T06:54:05;3.60;;;3.35;;
64060;SDS011;60147;55.036;73.242;2024-01-15T06:56:31;4.32;;;4.00;;
64060;SDS011;60147;55.036;73.242;2024-01-15T06:59:03;3.33;;;3.13;;
64060;SDS011;60147;55.036;73.242;2024-01-15T07:01:29;4.25;;;2.40;;
64060;SDS011;60147;55.036;73.242;2024-01-15T07:03:56;3.45;;;3.15;;
64060;SDS011;60147;55.036;73.242;2024-01-15T07:06:22;5.75;;;3.90;;
64060;SDS011;60147;55.036;73.242;2024-01-15T07:08:48;7.28;;;4.13;;
64060;SDS011;60147;55.036;73.242;2024-01-15T07:11:15;3.05;;;2.85;;
64060;SDS011;60147;55.036;73.242;2024-01-15T07:13:41;2.95;;;2.65;;
64060;SDS011;60147;55.036;73.242;2024-01-15T07:16:11;11.10;;;4.03;;
64060;SDS011;60147;55.036;73.242;2024-01-15T07:18:37;6.90;;;3.42;;
64060;SDS011;60147;55.036;73.242;2024-01-15T07:21:04;7.65;;;4.10;;
64060;SDS011;60147;55.036;73.242;2024-01-15T07:23:30;4.72;;;4.22;;
64060;SDS011;60147;55.036;73.242;2024-01-15T07:26:07;3.30;;;3.00;;
64060;SDS011;60147;55.036;73.242;2024-01-15T07:28:33;4.72;;;3.40;;
64060;SDS011;60147;55.036;73.242;2024-01-15T07:30:59;4.10;;;3.80;;
64060;SDS011;60147;55.036;73.242;2024-01-15T07:33:27;5.95;;;3.42;;
64060;SDS011;60147;55.036;73.242;2024-01-15T07:35:53;3.17;;;2.97;;
64060;SDS011;60147;55.036;73.242;2024-01-15T07:38:19;4.80;;;3.50;;
64060;SDS011;60147;55.036;73.242;2024-01-15T07:40:45;4.60;;;3.78;;
64060;SDS011;60147;55.036;73.242;2024-01-15T07:43:14;4.53;;;3.88;;
64060;SDS011;60147;55.036;73.242;2024-01-15T07:45:40;5.10;;;4.70;;
64060;SDS011;60147;55.036;73.242;2024-01-15T07:48:06;5.15;;;3.80;;
64060;SDS011;60147;55.036;73.242;2024-01-15T07:50:36;5.78;;;3.42;;
64060;SDS011;60147;55.036;73.242;2024-01-15T07:53:02;4.97;;;4.28;;
64060;SDS011;60147;55.036;73.242;2024-01-15T07:55:29;2.75;;;2.53;;
64060;SDS011;60147;55.036;73.242;2024-01-15T07:57:55;4.63;;;4.28;;
64060;SDS011;60147;55.036;73.242;2024-01-15T08:00:24;5.80;;;3.20;;
64060;SDS011;60147;55.036;73.242;2024-01-15T08:02:50;6.53;;;4.20;;
64060;SDS011;60147;55.036;73.242;2024-01-15T08:05:18;5.57;;;4.60;;
64060;SDS011;60147;55.036;73.242;2024-01-15T08:07:44;3.80;;;3.17;;
64060;SDS011;60147;55.036;73.242;2024-01-15T08:10:10;4.40;;;3.95;;
64060;SDS011;60147;55.036;73.242;2024-01-15T08:12:39;7.25;;;4.88;;
64060;SDS011;60147;55.036;73.242;2024-01-15T08:15:05;3.75;;;3.45;;
64060;SDS011;60147;55.036;73.242;2024-01-15T08:17:31;3.33;;;3.05;;
64060;SDS011;60147;55.036;73.242;2024-01-15T08:19:58;4.43;;;3.83;;
64060;SDS011;60147;55.036;73.242;2024-01-15T08:22:25;3.65;;;3.38;;
64060;SDS011;60147;55.036;73.242;2024-01-15T08:24:51;5.20;;;4.80;;
64060;SDS011;60147;55.036;73.242;2024-01-15T08:27:17;3.55;;;3.35;;
64060;SDS011;60147;55.036;73.242;2024-01-15T08:29:44;4.57;;;4.00;;
64060;SDS011;60147;55.036;73.242;2024-01-15T08:32:10;5.65;;;5.15;;
64060;SDS011;60147;55.036;73.242;2024-01-15T08:34:39;4.05;;;3.70;;
64060;SDS011;60147;55.036;73.242;2024-01-15T08:37:05;9.75;;;5.97;;
64060;SDS011;60147;55.036;73.242;2024-01-15T08:39:31;4.32;;;3.92;;
64060;SDS011;60147;55.036;73.242;2024-01-15T08:41:57;9.55;;;3.83;;
64060;SDS011;60147;55.036;73.242;2024-01-15T08:44:23;4.80;;;3.83;;
64060;SDS011;60147;55.036;73.242;2024-01-15T08:46:49;6.22;;;3.25;;
64060;SDS011;60147;55.036;73.242;2024-01-15T08:49:15;3.35;;;3.05;;
64060;SDS011;60147;55.036;73.242;2024-01-15T08:51:41;3.00;;;2.80;;
64060;SDS011;60147;55.036;73.242;2024-01-15T08:54:08;3.95;;;3.33;;
64060;SDS011;60147;55.036;73.242;2024-01-15T08:56:34;6.38;;;3.75;;
64060;SDS011;60147;55.036;73.242;2024-01-15T08:59:00;3.25;;;2.95;;
64060;SDS011;60147;55.036;73.242;2024-01-15T09:01:26;4.53;;;4.10;;
64060;SDS011;60147;55.036;73.242;2024-01-15T09:03:52;4.90;;;3.95;;
64060;SDS011;60147;55.036;73.242;2024-01-15T09:06:21;3.33;;;3.03;;
64060;SDS011;60147;55.036;73.242;2024-01-15T09:08:47;4.07;;;3.78;;
64060;SDS011;60147;55.036;73.242;2024-01-15T09:11:13;3.20;;;2.90;;
64060;SDS011;60147;55.036;73.242;2024-01-15T09:13:39;4.88;;;4.07;;
64060;SDS011;60147;55.036;73.242;2024-01-15T09:16:05;2.80;;;2.60;;
64060;SDS011;60147;55.036;73.242;2024-01-15T09:18:31;5.22;;;3.85;;
64060;SDS011;60147;55.036;73.242;2024-01-15T09:20:58;12.77;;;3.97;;
64060;SDS011;60147;55.036;73.242;2024-01-15T09:23:24;4.78;;;2.90;;
64060;SDS011;60147;55.036;73.242;2024-01-15T09:25:50;6.05;;;5.50;;
64060;SDS011;60147;55.036;73.242;2024-01-15T09:28:18;4.07;;;3.78;;
64060;SDS011;60147;55.036;73.242;2024-01-15T09:30:44;8.55;;;5.63;;
64060;SDS011;60147;55.036;73.242;2024-01-15T09:33:11;7.00;;;6.00;;
64060;SDS011;60147;55.036;73.242;2024-01-15T09:35:37;5.00;;;4.55;;
64060;SDS011;60147;55.036;73.242;2024-01-15T09:38:03;5.38;;;4.15;;
64060;SDS011;60147;55.036;73.242;2024-01-15T09:40:31;6.03;;;4.47;;
64060;SDS011;60147;55.036;73.242;2024-01-15T09:42:58;10.68;;;6.40;;
64060;SDS011;60147;55.036;73.242;2024-01-15T09:45:25;5.38;;;4.88;;
64060;SDS011;60147;55.036;73.242;2024-01-15T09:47:52;4.05;;;3.25;;
64060;SDS011;60147;55.036;73.242;2024-01-15T09:50:18;4.43;;;4.03;;
64060;SDS011;60147;55.036;73.242;2024-01-15T09:52:44;3.92;;;3.30;;
64060;SDS011;60147;55.036;73.242;2024-01-15T09:55:11;5.45;;;4.38;;
64060;SDS011;60147;55.036;73.242;2024-01-15T09:57:37;4.60;;;3.75;;
64060;SDS011;60147;55.036;73.242;2024-01-15T10:00:05;6.22;;;4.40;;
64060;SDS011;60147;55.036;73.242;2024-01-15T10:02:32;8.07;;;3.97;;
64060;SDS011;60147;55.036;73.242;2024-01-15T10:04:58;5.93;;;3.92;;
64060;SDS011;60147;55.036;73.242;2024-01-15T10:07:25;6.40;;;2.28;;
64060;SDS011;60147;55.036;73.242;2024-01-15T10:09:51;5.03;;;4.63;;
64060;SDS011;60147;55.036;73.242;2024-01-15T10:12:17;6.75;;;4.88;;
64060;SDS011;60147;55.036;73.242;2024-01-15T10:14:43;7.90;;;5.43;;
64060;SDS011;60147;55.036;73.242;2024-01-15T10:17:15;16.10;;;5.75;;
64060;SDS011;60147;55.036;73.242;2024-01-15T10:19:44;8.38;;;5.07;;
64060;SDS011;60147;55.036;73.242;2024-01-15T10:22:10;10.68;;;5.43;;
64060;SDS011;60147;55.036;73.242;2024-01-15T10:24:36;9.70;;;6.30;;
64060;SDS011;60147;55.036;73.242;2024-01-15T10:27:12;21.08;;;9.00;;
64060;SDS011;60147;55.036;73.242;2024-01-15T10:29:38;7.05;;;4.82;;
64060;SDS011;60147;55.036;73.242;2024-01-15T10:32:08;9.45;;;5.05;;
64060;SDS011;60147;55.036;73.242;2024-01-15T10:34:37;9.00;;;5.22;;
64060;SDS011;60147;55.036;73.242;2024-01-15T10:37:06;4.53;;;3.85;;
64060;SDS011;60147;55.036;73.242;2024-01-15T10:39:32;13.00;;;6.55;;
64060;SDS011;60147;55.036;73.242;2024-01-15T10:41:58;9.05;;;4.95;;
64060;SDS011;60147;55.036;73.242;2024-01-15T10:44:25;17.95;;;7.10;;
64060;SDS011;60147;55.036;73.242;2024-01-15T10:46:57;2.53;;;2.33;;
64060;SDS011;60147;55.036;73.242;2024-01-15T10:49:24;7.32;;;5.97;;
64060;SDS011;60147;55.036;73.242;2024-01-15T10:51:52;9.45;;;6.47;;
64060;SDS011;60147;55.036;73.242;2024-01-15T10:54:19;18.58;;;5.70;;
64060;SDS011;60147;55.036;73.242;2024-01-15T10:56:45;24.20;;;10.13;;
64060;SDS011;60147;55.036;73.242;2024-01-15T10:59:12;18.05;;;10.25;;
64060;SDS011;60147;55.036;73.242;2024-01-15T11:01:39;21.58;;;9.70;;
64060;SDS011;60147;55.036;73.242;2024-01-15T11:04:05;10.40;;;7.68;;
64060;SDS011;60147;55.036;73.242;2024-01-15T11:06:40;13.52;;;7.00;;
64060;SDS011;60147;55.036;73.242;2024-01-15T11:09:07;16.88;;;7.78;;
64060;SDS011;60147;55.036;73.242;2024-01-15T11:11:35;14.93;;;8.82;;
64060;SDS011;60147;55.036;73.242;2024-01-15T11:14:00;10.10;;;6.43;;
64060;SDS011;60147;55.036;73.242;2024-01-15T11:16:28;6.90;;;6.20;;
64060;SDS011;60147;55.036;73.242;2024-01-15T11:19:13;9.73;;;5.70;;
64060;SDS011;60147;55.036;73.242;2024-01-15T11:21:41;7.70;;;7.10;;
64060;SDS011;60147;55.036;73.242;2024-01-15T11:24:08;11.38;;;7.72;;
64060;SDS011;60147;55.036;73.242;2024-01-15T11:26:46;6.65;;;6.05;;
64060;SDS011;60147;55.036;73.242;2024-01-15T11:32:03;14.45;;;8.52;;
64060;SDS011;60147;55.036;73.242;2024-01-15T11:34:51;9.63;;;5.72;;
64060;SDS011;60147;55.036;73.242;2024-01-15T11:37:18;8.50;;;5.97;;
64060;SDS011;60147;55.036;73.242;2024-01-15T11:39:45;11.35;;;9.30;;
64060;SDS011;60147;55.036;73.242;2024-01-15T11:42:12;10.43;;;7.95;;
64060;SDS011;60147;55.036;73.242;2024-01-15T11:44:45;18.30;;;8.35;;
64060;SDS011;60147;55.036;73.242;2024-01-15T11:47:11;10.77;;;8.32;;
64060;SDS011;60147;55.036;73.242;2024-01-15T11:50:01;12.57;;;7.32;;
64060;SDS011;60147;55.036;73.242;2024-01-15T11:52:49;12.82;;;7.85;;
64060;SDS011;60147;55.036;73.242;2024-01-15T11:55:22;26.25;;;10.55;;
64060;SDS011;60147;55.036;73.242;2024-01-15T11:57:50;16.80;;;12.05;;
64060;SDS011;60147;55.036;73.242;2024-01-15T12:00:16;16.25;;;10.95;;
64060;SDS011;60147;55.036;73.242;2024-01-15T12:02:43;8.40;;;7.65;;
64060;SDS011;60147;55.036;73.242;2024-01-15T12:05:16;9.35;;;7.32;;
64060;SDS011;60147;55.036;73.242;2024-01-15T12:07:42;15.88;;;7.88;;
64060;SDS011;60147;55.036;73.242;2024-01-15T12:10:12;5.70;;;5.10;;
64060;SDS011;60147;55.036;73.242;2024-01-15T12:12:57;14.10;;;7.47;;
64060;SDS011;60147;55.036;73.242;2024-01-15T12:15:24;11.27;;;7.88;;
64060;SDS011;60147;55.036;73.242;2024-01-15T12:17:59;13.32;;;7.10;;
64060;SDS011;60147;55.036;73.242;2024-01-15T12:20:26;8.52;;;6.65;;
64060;SDS011;60147;55.036;73.242;2024-01-15T12:22:53;7.22;;;6.07;;
64060;SDS011;60147;55.036;73.242;2024-01-15T12:25:38;13.80;;;7.93;;
64060;SDS011;60147;55.036;73.242;2024-01-15T12:28:05;8.35;;;6.30;;
64060;SDS011;60147;55.036;73.242;2024-01-15T12:30:51;6.32;;;5.75;;
64060;SDS011;60147;55.036;73.242;2024-01-15T12:33:17;12.10;;;5.88;;
64060;SDS011;60147;55.036;73.242;2024-01-15T12:35:43;16.13;;;6.85;;
64060;SDS011;60147;55.036;73.242;2024-01-15T12:38:29;15.60;;;6.35;;
64060;SDS011;60147;55.036;73.242;2024-01-15T12:40:55;12.40;;;7.05;;
64060;SDS011;60147;55.036;73.242;2024-01-15T12:43:21;11.82;;;7.10;;
64060;SDS011;60147;55.036;73.242;2024-01-15T12:45:47;15.02;;;9.20;;
64060;SDS011;60147;55.036;73.242;2024-01-15T12:48:13;18.40;;;10.32;;
64060;SDS011;60147;55.036;73.242;2024-01-15T12:50:42;12.38;;;8.55;;
64060;SDS011;60147;55.036;73.242;2024-01-15T12:53:08;15.85;;;6.15;;
64060;SDS011;60147;55.036;73.242;2024-01-15T12:55:54;8.77;;;6.45;;
64060;SDS011;60147;55.036;73.242;2024-01-15T12:58:20;7.63;;;4.97;;
64060;SDS011;60147;55.036;73.242;2024-01-15T13:00:46;7.35;;;5.65;;
64060;SDS011;60147;55.036;73.242;2024-01-15T13:03:30;5.78;;;5.28;;
64060;SDS011;60147;55.036;73.242;2024-01-15T13:05:56;10.77;;;4.90;;
64060;SDS011;60147;55.036;73.242;2024-01-15T13:08:22;9.95;;;7.55;;
64060;SDS011;60147;55.036;73.242;2024-01-15T13:10:50;5.07;;;4.60;;
64060;SDS011;60147;55.036;73.242;2024-01-15T13:13:18;11.90;;;6.75;;
64060;SDS011;60147;55.036;73.242;2024-01-15T13:15:44;11.13;;;7.60;;
64060;SDS011;60147;55.036;73.242;2024-01-15T13:18:10;6.72;;;5.20;;
64060;SDS011;60147;55.036;73.242;2024-01-15T13:20:38;9.80;;;6.88;;
64060;SDS011;60147;55.036;73.242;2024-01-15T13:23:04;20.98;;;8.77;;
64060;SDS011;60147;55.036;73.242;2024-01-15T13:25:31;12.07;;;7.60;;
64060;SDS011;60147;55.036;73.242;2024-01-15T13:27:58;14.23;;;7.60;;
64060;SDS011;60147;55.036;73.242;2024-01-15T13:30:23;11.63;;;4.82;;
64060;SDS011;60147;55.036;73.242;2024-01-15T13:32:49;15.02;;;6.88;;
64060;SDS011;60147;55.036;73.242;2024-01-15T13:35:35;12.15;;;4.88;;
64060;SDS011;60147;55.036;73.242;2024-01-15T13:38:02;8.45;;;6.28;;
64060;SDS011;60147;55.036;73.242;2024-01-15T13:40:28;13.35;;;5.35;;
64060;SDS011;60147;55.036;73.242;2024-01-15T13:43:08;14.10;;;6.80;;
64060;SDS011;60147;55.036;73.242;2024-01-15T13:45:43;9.60;;;6.10;;
64060;SDS011;60147;55.036;73.242;2024-01-15T13:48:09;6.13;;;5.50;;
64060;SDS011;60147;55.036;73.242;2024-01-15T13:50:35;31.15;;;13.70;;
64060;SDS011;60147;55.036;73.242;2024-01-15T13:53:02;20.10;;;10.57;;
64060;SDS011;60147;55.036;73.242;2024-01-15T13:55:29;14.75;;;8.18;;
64060;SDS011;60147;55.036;73.242;2024-01-15T13:58:15;21.10;;;10.45;;
64060;SDS011;60147;55.036;73.242;2024-01-15T14:00:41;6.57;;;4.70;;
64060;SDS011;60147;55.036;73.242;2024-01-15T14:03:07;12.18;;;7.22;;
64060;SDS011;60147;55.036;73.242;2024-01-15T14:05:33;11.70;;;6.93;;
64060;SDS011;60147;55.036;73.242;2024-01-15T14:08:05;6.50;;;5.95;;
64060;SDS011;60147;55.036;73.242;2024-01-15T14:10:31;15.63;;;8.93;;
64060;SDS011;60147;55.036;73.242;2024-01-15T14:12:56;18.80;;;8.85;;
64060;SDS011;60147;55.036;73.242;2024-01-15T14:15:23;15.45;;;7.55;;
64060;SDS011;60147;55.036;73.242;2024-01-15T14:17:49;5.85;;;4.68;;
64060;SDS011;60147;55.036;73.242;2024-01-15T14:20:15;8.30;;;4.47;;
64060;SDS011;60147;55.036;73.242;2024-01-15T14:22:42;5.70;;;5.15;;
64060;SDS011;60147;55.036;73.242;2024-01-15T14:25:08;7.88;;;6.28;;
64060;SDS011;60147;55.036;73.242;2024-01-15T14:27:34;7.55;;;5.80;;
64060;SDS011;60147;55.036;73.242;2024-01-15T14:30:00;9.98;;;5.63;;
64060;SDS011;60147;55.036;73.242;2024-01-15T14:32:26;6.55;;;5.53;;
64060;SDS011;60147;55.036;73.242;2024-01-15T14:34:52;6.13;;;5.13;;